createdAt,value
2023-04-04T00:00:53.371Z,5.10
2023-04-04T00:03:21.787Z,6.03
2023-04-04T00:05:51.659Z,10.13
2023-04-04T00:08:19.864Z,9.05
2023-04-04T00:10:48.083Z,4.93
2023-04-04T00:13:16.501Z,3.90
2023-04-04T00:15:44.671Z,5.70
2023-04-04T00:18:12.793Z,5.90
2023-04-04T00:20:41.222Z,9.20
2023-04-04T00:23:11.229Z,6.00
2023-04-04T00:25:39.592Z,4.65
2023-04-04T00:28:07.672Z,4.30
2023-04-04T00:30:36.819Z,7.00
2023-04-04T00:33:06.540Z,6.57
2023-04-04T00:35:35.244Z,5.72
2023-04-04T00:38:03.430Z,6.15
2023-04-04T00:40:31.609Z,6.10
2023-04-04T00:43:00.659Z,6.05
2023-04-04T00:45:28.872Z,3.70
2023-04-04T00:47:57.670Z,6.63
2023-04-04T00:50:26.248Z,7.38
2023-04-04T00:52:54.659Z,8.95
2023-04-04T00:55:24.782Z,6.07
2023-04-04T00:57:53.568Z,8.82
2023-04-04T01:00:22.073Z,4.28
2023-04-04T01:02:51.619Z,7.95
2023-04-04T01:05:19.791Z,6.93
2023-04-04T01:07:48.142Z,4.60
2023-04-04T01:10:16.356Z,6.55
2023-04-04T01:12:45.077Z,5.50
2023-04-04T01:15:13.310Z,7.97
2023-04-04T01:17:43.648Z,5.07
2023-04-04T01:20:16.232Z,9.68
2023-04-04T01:22:52.920Z,6.30
2023-04-04T01:25:32.182Z,4.30
2023-04-04T01:28:08.234Z,10.32
2023-04-04T01:30:40.072Z,7.15
2023-04-04T01:33:25.675Z,6.60
2023-04-04T01:36:22.024Z,5.65
2023-04-04T01:38:58.180Z,5.97
2023-04-04T01:41:35.406Z,9.88
2023-04-04T01:44:05.109Z,7.60
2023-04-04T01:46:33.539Z,5.65
2023-04-04T01:49:01.799Z,5.93
2023-04-04T01:51:33.949Z,7.70
2023-04-04T01:54:02.342Z,6.75
2023-04-04T01:56:30.401Z,5.53
2023-04-04T01:58:58.686Z,6.35
2023-04-04T02:01:27.006Z,6.10
2023-04-04T02:03:55.122Z,10.05
2023-04-04T02:06:23.505Z,8.23
2023-04-04T02:08:53.029Z,7.40
2023-04-04T02:11:23.110Z,6.10
2023-04-04T02:13:52.141Z,9.23
2023-04-04T02:16:21.376Z,3.67
2023-04-04T02:18:49.804Z,4.72
2023-04-04T02:21:17.989Z,6.88
2023-04-04T02:23:46.178Z,8.15
2023-04-04T02:26:14.322Z,12.68
2023-04-04T02:28:42.530Z,5.50
2023-04-04T02:31:11.722Z,8.50
2023-04-04T02:33:41.235Z,4.70
2023-04-04T02:36:10.497Z,9.43
2023-04-04T02:38:40.246Z,4.53
2023-04-04T02:41:08.878Z,7.22
2023-04-04T02:43:37.577Z,4.28
2023-04-04T02:46:20.601Z,4.95
2023-04-04T02:48:52.155Z,9.23
2023-04-04T02:51:20.626Z,4.70
2023-04-04T02:53:48.837Z,8.27
2023-04-04T02:56:25.054Z,6.90
2023-04-04T02:58:53.351Z,9.85
2023-04-04T03:01:21.699Z,7.57
2023-04-04T03:03:50.088Z,5.57
2023-04-04T03:06:18.616Z,7.72
2023-04-04T03:08:50.129Z,7.82
2023-04-04T03:11:21.274Z,7.68
2023-04-04T03:13:51.746Z,6.20
2023-04-04T03:16:23.428Z,4.32
2023-04-04T03:18:55.017Z,6.03
2023-04-04T03:21:23.516Z,5.55
2023-04-04T03:23:51.996Z,5.72
2023-04-04T03:26:20.505Z,5.93
2023-04-04T03:28:48.883Z,6.47
2023-04-04T03:31:18.654Z,7.50
2023-04-04T03:33:47.340Z,6.20
2023-04-04T03:36:16.779Z,10.20
2023-04-04T03:38:48.471Z,7.15
2023-04-04T03:41:16.778Z,7.20
2023-04-04T03:43:45.696Z,6.68
2023-04-04T03:46:14.068Z,5.78
2023-04-04T03:48:42.321Z,6.13
2023-04-04T03:51:15.216Z,8.48
2023-04-04T03:56:13.598Z,4.45
2023-04-04T03:58:42.139Z,4.80
2023-04-04T04:01:13.940Z,8.13
2023-04-04T04:03:43.045Z,8.55
2023-04-04T04:06:12.887Z,4.85
2023-04-04T04:08:41.436Z,5.90
2023-04-04T04:11:09.578Z,6.50
2023-04-04T04:13:40.663Z,4.78
2023-04-04T04:16:12.478Z,3.25
2023-04-04T04:18:41.275Z,7.90
2023-04-04T04:21:14.169Z,9.02
2023-04-04T04:23:44.301Z,11.15
2023-04-04T04:26:13.309Z,9.10
2023-04-04T04:28:42.202Z,10.18
2023-04-04T04:31:15.693Z,6.18
2023-04-04T04:33:48.773Z,3.95
2023-04-04T04:36:19.161Z,8.27
2023-04-04T04:39:05.232Z,8.18
2023-04-04T04:41:38.595Z,6.72
2023-04-04T04:44:10.590Z,8.85
2023-04-04T04:46:39.209Z,10.07
2023-04-04T04:49:13.458Z,4.40
2023-04-04T04:51:44.494Z,8.25
2023-04-04T04:54:14.268Z,4.57
2023-04-04T04:56:47.597Z,12.60
2023-04-04T04:59:15.900Z,6.75
2023-04-04T05:01:46.144Z,7.57
2023-04-04T05:04:17.714Z,7.88
2023-04-04T05:06:59.176Z,8.52
2023-04-04T05:09:27.653Z,8.73
2023-04-04T05:11:56.476Z,5.18
2023-04-04T05:14:33.331Z,8.25
2023-04-04T05:17:01.711Z,11.02
2023-04-04T05:19:32.968Z,4.47
2023-04-04T05:22:02.640Z,5.35
2023-04-04T05:24:44.776Z,8.27
2023-04-04T05:27:16.642Z,4.72
2023-04-04T05:29:49.263Z,4.60
2023-04-04T05:32:17.902Z,9.50
2023-04-04T05:34:54.346Z,7.00
2023-04-04T05:37:23.587Z,4.88
2023-04-04T05:39:51.993Z,5.05
2023-04-04T05:42:20.194Z,3.80
2023-04-04T05:44:53.916Z,5.20
2023-04-04T05:47:22.920Z,7.78
2023-04-04T05:49:51.712Z,5.40
2023-04-04T05:52:21.331Z,3.55
2023-04-04T05:54:51.367Z,8.20
2023-04-04T05:57:27.642Z,8.43
2023-04-04T05:59:58.721Z,6.20
2023-04-04T06:02:29.656Z,7.05
2023-04-04T06:05:03.334Z,8.82
2023-04-04T06:07:36.273Z,3.78
2023-04-04T06:10:05.817Z,8.95
2023-04-04T06:12:36.400Z,9.35
2023-04-04T06:15:09.501Z,5.47
2023-04-04T06:17:39.594Z,7.53
2023-04-04T06:20:09.036Z,3.40
2023-04-04T06:22:37.294Z,4.15
2023-04-04T06:25:06.577Z,3.72
2023-04-04T06:27:35.503Z,4.47
2023-04-04T06:30:07.499Z,4.93
2023-04-04T06:32:38.739Z,3.30
2023-04-04T06:35:08.929Z,3.97
2023-04-04T06:37:43.090Z,3.97
2023-04-04T06:40:21.033Z,4.03
2023-04-04T06:42:50.683Z,3.92
2023-04-04T06:45:19.520Z,3.17
2023-04-04T06:47:50.195Z,5.60
2023-04-04T06:50:18.628Z,5.50
2023-04-04T06:52:49.823Z,3.92
2023-04-04T06:55:18.718Z,3.67
2023-04-04T06:57:47.214Z,5.47
2023-04-04T07:00:16.153Z,5.20
2023-04-04T07:02:44.329Z,3.10
2023-04-04T07:05:14.251Z,9.43
2023-04-04T07:07:42.408Z,3.65
2023-04-04T07:10:11.060Z,3.47
2023-04-04T07:12:39.171Z,6.00
2023-04-04T07:15:07.918Z,3.42
2023-04-04T07:17:39.117Z,5.43
2023-04-04T07:20:08.751Z,4.25
2023-04-04T07:22:40.992Z,6.60
2023-04-04T07:25:09.756Z,5.95
2023-04-04T07:27:38.090Z,2.42
2023-04-04T07:30:06.794Z,3.55
2023-04-04T07:32:35.445Z,1.30
2023-04-04T07:35:05.140Z,1.92
2023-04-04T07:37:34.062Z,2.42
2023-04-04T07:40:02.235Z,4.57
2023-04-04T07:42:31.138Z,2.58
2023-04-04T07:44:59.272Z,3.05
2023-04-04T07:47:28.276Z,2.92
2023-04-04T07:49:56.510Z,2.72
2023-04-04T07:52:24.659Z,1.83
2023-04-04T07:54:53.261Z,4.68
2023-04-04T07:57:21.747Z,2.95
2023-04-04T07:59:49.834Z,4.13
2023-04-04T08:02:18.020Z,6.03
2023-04-04T08:04:46.288Z,3.03
2023-04-04T08:07:14.451Z,3.25
2023-04-04T08:09:42.502Z,4.03
2023-04-04T08:12:10.614Z,4.82
2023-04-04T08:14:38.810Z,3.03
2023-04-04T08:17:06.965Z,4.32
2023-04-04T08:19:35.089Z,4.03
2023-04-04T08:22:03.540Z,2.90
2023-04-04T08:24:31.655Z,2.78
2023-04-04T08:27:05.333Z,4.03
2023-04-04T08:29:34.389Z,2.80
2023-04-04T08:32:02.725Z,4.97
2023-04-04T08:34:30.865Z,2.97
2023-04-04T08:37:00.058Z,3.90
2023-04-04T08:39:28.335Z,2.55
2023-04-04T08:42:03.553Z,2.55
2023-04-04T08:44:34.110Z,2.05
2023-04-04T08:47:09.218Z,3.13
2023-04-04T08:49:46.236Z,3.60
2023-04-04T08:52:22.283Z,1.92
2023-04-04T08:54:51.975Z,3.13
2023-04-04T08:57:20.535Z,3.75
2023-04-04T08:59:49.385Z,3.13
2023-04-04T09:02:29.299Z,5.38
2023-04-04T09:05:06.398Z,2.97
2023-04-04T09:07:39.933Z,4.38
2023-04-04T09:10:11.859Z,2.13
2023-04-04T09:12:47.467Z,1.75
2023-04-04T09:15:16.085Z,2.03
2023-04-04T09:17:44.320Z,4.68
2023-04-04T09:20:34.371Z,3.22
2023-04-04T09:23:05.224Z,4.38
2023-04-04T09:25:37.816Z,3.38
2023-04-04T09:28:06.277Z,2.80
2023-04-04T09:30:35.764Z,2.85
2023-04-04T09:33:09.383Z,2.22
2023-04-04T09:35:39.508Z,4.15
2023-04-04T09:38:08.244Z,3.40
2023-04-04T09:40:42.569Z,4.15
2023-04-04T09:43:13.339Z,4.00
2023-04-04T09:45:45.005Z,2.95
2023-04-04T09:48:25.357Z,4.47
2023-04-04T09:50:53.732Z,4.10
2023-04-04T09:53:21.784Z,4.28
2023-04-04T09:55:54.820Z,3.83
2023-04-04T09:58:31.948Z,3.28
2023-04-04T10:01:02.110Z,5.47
2023-04-04T10:03:31.203Z,9.07
2023-04-04T10:06:06.973Z,4.28
2023-04-04T10:08:39.158Z,4.60
2023-04-04T10:11:11.836Z,4.72
2023-04-04T10:13:41.692Z,3.10
2023-04-04T10:16:13.758Z,3.88
2023-04-04T10:18:42.222Z,2.92
2023-04-04T10:23:45.576Z,3.53
2023-04-04T10:26:14.054Z,2.88
2023-04-04T10:28:43.930Z,3.53
2023-04-04T10:31:25.216Z,4.18
2023-04-04T10:34:19.459Z,3.97
2023-04-04T10:36:54.119Z,3.30
2023-04-04T10:39:29.768Z,5.32
2023-04-04T10:41:59.058Z,6.50
2023-04-04T10:44:37.044Z,3.53
2023-04-04T10:47:21.833Z,7.18
2023-04-04T10:49:51.284Z,3.72
2023-04-04T10:52:22.824Z,3.08
2023-04-04T10:54:57.367Z,6.20
2023-04-04T10:57:28.195Z,4.97
2023-04-04T10:59:58.103Z,4.60
2023-04-04T11:02:46.049Z,4.13
2023-04-04T11:05:34.387Z,6.38
2023-04-04T11:08:10.945Z,2.85
2023-04-04T11:10:44.633Z,2.70
2023-04-04T11:13:18.916Z,6.38
2023-04-04T11:16:10.028Z,4.70
2023-04-04T11:18:45.575Z,3.85
2023-04-04T11:21:18.644Z,4.10
2023-04-04T11:23:49.865Z,3.83
2023-04-04T11:26:34.319Z,3.10
2023-04-04T11:29:04.173Z,4.57
2023-04-04T11:31:40.391Z,3.45
2023-04-04T11:34:32.330Z,3.80
2023-04-04T11:37:17.896Z,3.88
2023-04-04T11:39:58.954Z,3.15
2023-04-04T11:42:37.938Z,4.35
2023-04-04T11:45:07.884Z,3.33
2023-04-04T11:47:36.373Z,6.35
2023-04-04T11:50:09.753Z,3.08
2023-04-04T11:55:20.395Z,4.82
2023-04-04T11:57:51.336Z,4.47
2023-04-04T12:00:33.116Z,6.78
2023-04-04T12:03:02.343Z,3.38
2023-04-04T12:05:31.481Z,4.60
2023-04-04T12:08:02.250Z,5.18
2023-04-04T12:10:34.142Z,6.93
2023-04-04T12:13:05.592Z,5.30
2023-04-04T12:15:36.187Z,9.77
2023-04-04T12:18:07.927Z,8.02
2023-04-04T12:20:41.157Z,5.55
2023-04-04T12:23:10.549Z,4.60
2023-04-04T12:25:44.341Z,5.38
2023-04-04T12:28:13.956Z,4.35
2023-04-04T12:30:42.481Z,5.03
2023-04-04T12:33:10.806Z,4.90
2023-04-04T12:35:40.168Z,5.82
2023-04-04T12:38:16.202Z,7.95
2023-04-04T12:40:47.398Z,6.03
2023-04-04T12:43:18.697Z,7.15
2023-04-04T12:45:49.745Z,3.25
2023-04-04T12:48:26.269Z,4.90
2023-04-04T12:51:00.669Z,4.65
2023-04-04T12:53:30.357Z,4.95
2023-04-04T12:56:04.771Z,6.55
2023-04-04T12:58:35.954Z,4.93
2023-04-04T13:01:05.409Z,7.30
2023-04-04T13:03:35.034Z,8.07
2023-04-04T13:06:03.809Z,8.30
2023-04-04T13:08:32.258Z,8.60
2023-04-04T13:11:05.931Z,5.18
2023-04-04T13:13:40.230Z,4.70
2023-04-04T13:16:14.462Z,14.13
2023-04-04T13:18:44.255Z,5.97
2023-04-04T13:21:13.264Z,5.07
2023-04-04T13:23:42.247Z,6.80
2023-04-04T13:26:11.260Z,5.05
2023-04-04T13:28:39.672Z,6.72
2023-04-04T13:31:13.370Z,8.05
2023-04-04T13:33:42.308Z,4.95
2023-04-04T13:36:10.732Z,7.97
2023-04-04T13:38:38.844Z,8.50
2023-04-04T13:41:07.045Z,5.05
2023-04-04T13:43:35.392Z,9.68
2023-04-04T13:46:03.514Z,6.57
2023-04-04T13:48:31.822Z,7.13
2023-04-04T13:50:59.880Z,6.50
2023-04-04T13:53:28.060Z,7.22
2023-04-04T13:56:16.950Z,7.07
2023-04-04T13:58:44.266Z,5.30
2023-04-04T14:01:12.485Z,6.80
2023-04-04T14:03:40.717Z,6.50
2023-04-04T14:06:10.722Z,5.55
2023-04-04T14:08:39.985Z,8.07
2023-04-04T14:11:09.479Z,5.43
2023-04-04T14:13:37.631Z,6.13
2023-04-04T14:16:06.964Z,6.20
2023-04-04T14:18:35.458Z,7.65
2023-04-04T14:21:03.892Z,9.77
2023-04-04T14:23:31.989Z,6.97
2023-04-04T14:26:00.137Z,7.80
2023-04-04T14:28:28.655Z,5.70
2023-04-04T14:30:56.778Z,8.57
2023-04-04T14:33:25.106Z,9.20
2023-04-04T14:35:53.206Z,5.55
2023-04-04T14:38:21.328Z,11.90
2023-04-04T14:40:49.787Z,10.90
2023-04-04T14:43:17.931Z,5.97
2023-04-04T14:45:46.354Z,6.50
2023-04-04T14:48:14.531Z,8.93
2023-04-04T14:50:42.899Z,9.13
2023-04-04T14:53:11.345Z,9.50
2023-04-04T14:55:39.800Z,11.40
2023-04-04T14:58:08.340Z,6.95
2023-04-04T15:00:36.450Z,5.88
2023-04-04T15:03:07.361Z,12.15
2023-04-04T15:05:35.853Z,8.18
2023-04-04T15:08:04.296Z,7.88
2023-04-04T15:10:32.446Z,11.93
2023-04-04T15:13:00.581Z,7.88
2023-04-04T15:15:29.267Z,6.93
2023-04-04T15:17:57.565Z,10.88
2023-04-04T15:20:25.750Z,5.72
2023-04-04T15:22:54.512Z,9.73
2023-04-04T15:25:22.744Z,9.35
2023-04-04T15:27:50.996Z,6.28
2023-04-04T15:30:19.201Z,8.25
2023-04-04T15:32:47.451Z,7.85
2023-04-04T15:35:20.449Z,12.35
2023-04-04T15:37:49.247Z,9.40
2023-04-04T15:40:18.127Z,5.75
2023-04-04T15:42:46.968Z,7.45
2023-04-04T15:45:16.096Z,9.23
2023-04-04T15:47:45.262Z,8.73
2023-04-04T15:50:13.675Z,9.05
2023-04-04T15:52:41.930Z,8.68
2023-04-04T15:55:14.499Z,8.82
2023-04-04T15:57:44.843Z,10.80
2023-04-04T16:00:14.759Z,8.48
2023-04-04T16:02:43.145Z,7.70
2023-04-04T16:05:11.760Z,8.23
2023-04-04T16:07:39.854Z,8.40
2023-04-04T16:10:08.959Z,10.70
2023-04-04T16:12:37.114Z,13.27
2023-04-04T16:15:07.094Z,7.43
2023-04-04T16:17:37.976Z,7.10
2023-04-04T16:20:07.428Z,7.65
2023-04-04T16:22:35.756Z,8.27
2023-04-04T16:25:03.991Z,10.35
2023-04-04T16:27:32.104Z,8.82
2023-04-04T16:30:00.760Z,12.25
2023-04-04T16:32:29.127Z,9.73
2023-04-04T16:34:59.944Z,7.07
2023-04-04T16:37:28.152Z,8.65
2023-04-04T16:39:56.629Z,9.93
2023-04-04T16:42:24.832Z,7.57
2023-04-04T16:44:52.960Z,6.35
2023-04-04T16:47:21.211Z,6.18
2023-04-04T16:49:49.316Z,10.43
2023-04-04T16:52:17.759Z,10.00
2023-04-04T16:54:45.962Z,7.70
2023-04-04T16:57:14.161Z,10.75
2023-04-04T16:59:42.213Z,9.07
2023-04-04T17:02:10.472Z,9.32
2023-04-04T17:04:41.093Z,11.20
2023-04-04T17:07:10.319Z,8.20
2023-04-04T17:09:38.709Z,8.15
2023-04-04T17:12:07.040Z,8.70
2023-04-04T17:14:35.742Z,10.80
2023-04-04T17:17:05.420Z,5.95
2023-04-04T17:19:35.093Z,10.15
2023-04-04T17:22:03.680Z,9.50
2023-04-04T17:24:32.097Z,9.85
2023-04-04T17:27:01.655Z,6.78
2023-04-04T17:29:29.936Z,12.30
2023-04-04T17:31:59.787Z,9.63
2023-04-04T17:34:28.279Z,5.05
2023-04-04T17:36:56.803Z,6.03
2023-04-04T17:39:27.135Z,9.50
2023-04-04T17:41:56.202Z,7.40
2023-04-04T17:44:24.265Z,7.35
2023-04-04T17:46:52.420Z,8.00
2023-04-04T17:49:20.693Z,6.32
2023-04-04T17:51:49.812Z,13.05
2023-04-04T17:54:18.143Z,8.50
2023-04-04T17:56:47.204Z,9.38
2023-04-04T17:59:17.324Z,7.15
2023-04-04T18:01:46.801Z,9.95
2023-04-04T18:04:15.101Z,9.82
2023-04-04T18:06:43.339Z,6.35
2023-04-04T18:09:11.391Z,7.60
2023-04-04T18:11:39.935Z,8.30
2023-04-04T18:14:08.730Z,11.80
2023-04-04T18:16:40.107Z,6.18
2023-04-04T18:19:09.764Z,9.23
2023-04-04T18:21:39.029Z,10.13
2023-04-04T18:24:08.060Z,9.77
2023-04-04T18:26:36.400Z,5.65
2023-04-04T18:29:04.482Z,6.95
2023-04-04T18:31:32.747Z,7.93
2023-04-04T18:34:01.314Z,10.80
2023-04-04T18:36:29.394Z,14.77
2023-04-04T18:38:57.592Z,15.93
2023-04-04T18:41:25.918Z,9.35
2023-04-04T18:43:54.131Z,9.77
2023-04-04T18:46:23.150Z,8.35
2023-04-04T18:48:51.646Z,11.90
2023-04-04T18:51:22.127Z,6.25
2023-04-04T18:53:51.547Z,8.23
2023-04-04T18:56:19.724Z,11.13
2023-04-04T18:58:48.546Z,7.95
2023-04-04T19:01:17.647Z,9.48
2023-04-04T19:03:47.586Z,8.23
2023-04-04T19:06:16.223Z,10.40
2023-04-04T19:08:45.304Z,9.57
2023-04-04T19:11:14.156Z,6.88
2023-04-04T19:13:42.407Z,11.82
2023-04-04T19:16:10.541Z,6.90
2023-04-04T19:18:38.669Z,10.48
2023-04-04T19:21:08.351Z,10.68
2023-04-04T19:23:37.623Z,12.75
2023-04-04T19:26:06.655Z,11.40
2023-04-04T19:28:34.839Z,11.20
2023-04-04T19:31:07.702Z,7.53
2023-04-04T19:33:37.013Z,10.60
2023-04-04T19:36:10.827Z,10.40
2023-04-04T19:38:42.452Z,11.55
2023-04-04T19:41:20.584Z,13.07
2023-04-04T19:43:50.605Z,6.97
2023-04-04T19:46:29.658Z,10.98
2023-04-04T19:48:58.898Z,7.07
2023-04-04T19:51:27.948Z,8.88
2023-04-04T19:54:00.117Z,10.00
2023-04-04T19:56:29.182Z,13.75
2023-04-04T19:58:59.939Z,9.25
2023-04-04T20:01:31.886Z,13.25
2023-04-04T20:04:18.336Z,12.13
2023-04-04T20:06:50.377Z,11.75
2023-04-04T20:09:38.446Z,11.68
2023-04-04T20:12:09.477Z,12.55
2023-04-04T20:14:38.687Z,13.23
2023-04-04T20:17:07.015Z,9.75
2023-04-04T20:19:36.619Z,11.73
2023-04-04T20:22:06.178Z,10.43
2023-04-04T20:24:34.902Z,10.77
2023-04-04T20:27:03.958Z,12.20
2023-04-04T20:29:37.547Z,11.02
2023-04-04T20:32:08.849Z,13.80
2023-04-04T20:34:49.288Z,11.10
2023-04-04T20:37:24.906Z,12.68
2023-04-04T20:40:02.568Z,9.88
2023-04-04T20:42:30.917Z,10.60
2023-04-04T20:45:32.985Z,9.43
2023-04-04T20:48:06.789Z,12.73
2023-04-04T20:50:36.628Z,8.98
2023-04-04T20:53:06.223Z,7.55
2023-04-04T20:55:35.769Z,11.20
2023-04-04T20:58:30.146Z,9.35
2023-04-04T21:01:00.325Z,11.35
2023-04-04T21:03:34.788Z,8.80
2023-04-04T21:06:11.105Z,12.88
2023-04-04T21:08:47.028Z,14.43
2023-04-04T21:11:30.727Z,11.52
2023-04-04T21:13:58.911Z,7.63
2023-04-04T21:16:29.468Z,8.63
2023-04-04T21:19:00.207Z,7.28
2023-04-04T21:21:29.076Z,7.32
2023-04-04T21:24:00.098Z,10.13
2023-04-04T21:26:34.464Z,11.95
2023-04-04T21:29:19.198Z,6.97
2023-04-04T21:31:48.483Z,11.50
2023-04-04T21:34:21.718Z,8.75
2023-04-04T21:39:23.868Z,9.57
2023-04-04T21:41:58.416Z,8.75
2023-04-04T21:44:27.010Z,7.97
2023-04-04T21:46:55.702Z,10.18
2023-04-04T21:49:25.342Z,8.60
2023-04-04T21:51:53.549Z,12.88
2023-04-04T21:54:22.803Z,6.88
2023-04-04T21:56:51.921Z,10.35
2023-04-04T21:59:20.223Z,5.45
2023-04-04T22:01:49.988Z,8.52
2023-04-04T22:04:18.205Z,9.32
2023-04-04T22:06:46.353Z,7.70
2023-04-04T22:09:16.127Z,8.50
2023-04-04T22:11:44.436Z,7.05
2023-04-04T22:14:17.408Z,12.13
2023-04-04T22:16:46.022Z,12.48
2023-04-04T22:19:14.288Z,7.78
2023-04-04T22:21:47.563Z,13.30
2023-04-04T22:26:45.931Z,13.32
2023-04-04T22:29:14.320Z,7.85
2023-04-04T22:31:42.645Z,8.90
2023-04-04T22:34:13.259Z,8.13
2023-04-04T22:36:44.034Z,6.88
2023-04-04T22:39:16.120Z,8.82
2023-04-04T22:41:44.558Z,7.50
2023-04-04T22:44:12.678Z,7.82
2023-04-04T22:46:41.193Z,8.73
2023-04-04T22:49:09.242Z,10.57
2023-04-04T22:51:45.146Z,9.93
2023-04-04T22:54:16.762Z,10.30
2023-04-04T22:56:45.798Z,8.88
2023-04-04T22:59:17.099Z,8.80
2023-04-04T23:01:45.485Z,10.10
2023-04-04T23:04:13.672Z,7.50
2023-04-04T23:06:44.874Z,13.35
2023-04-04T23:09:13.462Z,11.55
2023-04-04T23:11:41.756Z,11.27
2023-04-04T23:14:15.167Z,8.98
2023-04-04T23:16:43.560Z,7.25
2023-04-04T23:19:12.325Z,10.60
2023-04-04T23:21:40.509Z,14.93
2023-04-04T23:24:08.655Z,10.98
2023-04-04T23:26:36.829Z,12.50
2023-04-04T23:29:06.925Z,12.27
2023-04-04T23:31:36.589Z,10.27
2023-04-04T23:34:04.754Z,12.23
2023-04-04T23:36:33.238Z,12.82
2023-04-04T23:39:01.401Z,11.48
2023-04-04T23:41:29.507Z,12.35
2023-04-04T23:43:57.839Z,10.93
2023-04-04T23:46:26.367Z,13.63
2023-04-04T23:48:54.740Z,12.50
2023-04-04T23:51:23.490Z,16.77
2023-04-04T23:53:51.973Z,12.73
2023-04-04T23:56:20.188Z,13.27
2023-04-04T23:58:48.263Z,11.05
